Time;durP1;ratioP1;P1;durP2;ratioP2;P2;SDS_P1;SDS_P2;PMS_P1;PMS_P2;Temp;Humidity;BMP_temperature;BMP_pressure;BME280_temperature;BME280_humidity;BME280_pressure;Samples;Min_cycle;Max_cycle;Signal;HPM_P1;HPM_P2
2022/01/13 00:01:40;;;;;;;65.07;29.77;;;;;;;;;;5037770;28;20210;-66
2022/01/13 00:04:08;;;;;;;62.60;29.83;;;;;;;;;;5036506;28;20179;-64
2022/01/13 00:06:34;;;;;;;67.27;29.47;;;;;;;;;;5038224;28;20254;-63
2022/01/13 00:09:00;;;;;;;62.60;30.57;;;;;;;;;;5036523;28;20230;-64
2022/01/13 00:11:26;;;;;;;68.43;31.17;;;;;;;;;;5037378;28;20184;-66
2022/01/13 00:16:42;;;;;;;68.83;31.67;;;;;;;;;;5037796;28;20309;-64
2022/01/13 00:21:42;;;;;;;66.60;31.67;;;;;;;;;;5038198;28;20179;-64
2022/01/13 00:24:13;;;;;;;73.00;33.80;;;;;;;;;;5036896;28;20183;-64
2022/01/13 00:26:41;;;;;;;58.53;29.30;;;;;;;;;;5037203;28;20269;-64
2022/01/13 00:29:08;;;;;;;65.93;31.07;;;;;;;;;;5037855;28;20223;-63
2022/01/13 00:31:37;;;;;;;56.97;28.33;;;;;;;;;;5036745;28;20190;-64
2022/01/13 00:34:04;;;;;;;57.60;28.57;;;;;;;;;;5038353;28;20510;-62
2022/01/13 00:36:31;;;;;;;62.90;29.37;;;;;;;;;;5038055;28;20191;-63
2022/01/13 00:38:57;;;;;;;63.40;30.23;;;;;;;;;;5036372;28;20238;-64
2022/01/13 00:41:26;;;;;;;61.83;30.00;;;;;;;;;;5037987;28;20179;-63
2022/01/13 00:43:52;;;;;;;62.27;30.40;;;;;;;;;;5037508;28;20727;-65
2022/01/13 00:46:27;;;;;;;62.53;29.77;;;;;;;;;;5037747;28;20215;-63
2022/01/13 00:48:54;;;;;;;63.30;31.17;;;;;;;;;;5037443;28;20213;-64
2022/01/13 00:51:21;;;;;;;64.93;30.73;;;;;;;;;;5041513;28;20187;-62
2022/01/13 00:53:47;;;;;;;66.37;30.77;;;;;;;;;;5040160;28;20437;-63
2022/01/13 00:56:13;;;;;;;61.53;31.50;;;;;;;;;;5041533;28;20568;-64
2022/01/13 00:58:39;;;;;;;63.57;30.27;;;;;;;;;;5041902;28;20285;-64
2022/01/13 01:01:06;;;;;;;58.93;28.63;;;;;;;;;;5039405;28;20186;-64
2022/01/13 01:03:32;;;;;;;64.90;31.10;;;;;;;;;;5041616;28;20175;-64
2022/01/13 01:05:58;;;;;;;67.63;30.37;;;;;;;;;;5040822;28;20183;-63
2022/01/13 01:08:25;;;;;;;60.30;29.90;;;;;;;;;;5040637;28;20461;-63
2022/01/13 01:10:53;;;;;;;61.77;29.93;;;;;;;;;;5039951;28;20183;-63
2022/01/13 01:13:22;;;;;;;61.37;31.73;;;;;;;;;;5042033;28;20175;-63
2022/01/13 01:15:52;;;;;;;67.33;31.33;;;;;;;;;;5038999;28;20182;-63
2022/01/13 01:19:06;;;;;;;69.67;31.47;;;;;;;;;;5040494;28;20819;-64
2022/01/13 01:26:34;;;;;;;68.33;31.70;;;;;;;;;;5041090;28;20391;-64
2022/01/13 01:29:17;;;;;;;66.13;32.63;;;;;;;;;;5041253;28;20223;-63
2022/01/13 01:31:47;;;;;;;64.03;32.23;;;;;;;;;;5041133;28;20465;-64
2022/01/13 01:36:43;;;;;;;66.70;31.90;;;;;;;;;;5040938;28;20187;-64
2022/01/13 01:39:09;;;;;;;61.37;33.37;;;;;;;;;;5040360;28;20253;-62
2022/01/13 01:41:36;;;;;;;67.07;32.10;;;;;;;;;;5040181;28;20254;-64
2022/01/13 01:44:06;;;;;;;66.93;33.03;;;;;;;;;;5040391;28;20171;-64
2022/01/13 01:46:39;;;;;;;69.03;33.57;;;;;;;;;;5040344;28;20410;-63
2022/01/13 01:49:15;;;;;;;68.67;34.07;;;;;;;;;;5040190;28;20618;-63
2022/01/13 01:51:41;;;;;;;64.30;32.00;;;;;;;;;;5038859;28;20163;-62
2022/01/13 01:54:07;;;;;;;65.47;32.87;;;;;;;;;;5040152;28;20224;-61
2022/01/13 01:56:33;;;;;;;67.90;34.73;;;;;;;;;;5040138;28;20414;-62
2022/01/13 01:59:02;;;;;;;62.43;31.37;;;;;;;;;;5039194;28;20218;-63
2022/01/13 02:01:29;;;;;;;71.10;33.70;;;;;;;;;;5037274;28;20269;-63
2022/01/13 02:03:55;;;;;;;69.23;32.73;;;;;;;;;;5038618;28;20418;-62
2022/01/13 02:06:21;;;;;;;78.20;34.17;;;;;;;;;;5039852;28;20190;-63
2022/01/13 02:08:47;;;;;;;73.43;32.93;;;;;;;;;;5039682;28;20215;-63
2022/01/13 02:11:14;;;;;;;72.00;35.33;;;;;;;;;;5040650;28;20654;-64
2022/01/13 02:13:47;;;;;;;71.00;33.47;;;;;;;;;;5040110;28;20179;-63
2022/01/13 02:18:58;;;;;;;68.43;34.60;;;;;;;;;;5040257;28;20233;-63
2022/01/13 02:21:25;;;;;;;74.17;33.30;;;;;;;;;;5039620;28;20183;-63
2022/01/13 02:23:52;;;;;;;71.07;33.83;;;;;;;;;;5039725;28;20201;-62
2022/01/13 02:26:18;;;;;;;83.23;35.30;;;;;;;;;;5039569;28;20229;-63
2022/01/13 02:28:44;;;;;;;76.57;34.63;;;;;;;;;;5037818;28;20218;-64
2022/01/13 02:31:11;;;;;;;63.63;31.53;;;;;;;;;;5039459;28;20171;-64
2022/01/13 02:33:38;;;;;;;79.33;36.93;;;;;;;;;;5039644;28;20194;-63
2022/01/13 02:36:04;;;;;;;73.50;34.80;;;;;;;;;;5039444;28;20445;-62
2022/01/13 02:38:30;;;;;;;74.43;33.10;;;;;;;;;;5039123;28;20199;-64
2022/01/13 02:40:57;;;;;;;75.33;34.87;;;;;;;;;;5039279;28;20308;-63
2022/01/13 02:43:24;;;;;;;73.37;35.33;;;;;;;;;;5039505;28;20309;-65
2022/01/13 02:48:35;;;;;;;75.00;35.03;;;;;;;;;;5039533;28;20237;-64
2022/01/13 02:51:02;;;;;;;77.70;36.90;;;;;;;;;;5037594;28;20225;-62
2022/01/13 02:53:28;;;;;;;76.40;35.30;;;;;;;;;;5039097;28;20177;-64
2022/01/13 02:55:56;;;;;;;79.03;38.23;;;;;;;;;;5039451;28;20179;-63
2022/01/13 02:58:23;;;;;;;80.53;36.87;;;;;;;;;;5038982;28;20302;-63
2022/01/13 03:00:49;;;;;;;85.13;37.70;;;;;;;;;;5039294;28;20546;-64
2022/01/13 03:03:15;;;;;;;81.33;35.57;;;;;;;;;;5038608;28;20183;-64
2022/01/13 03:05:41;;;;;;;91.60;37.57;;;;;;;;;;5038949;28;20186;-63
2022/01/13 03:08:08;;;;;;;75.53;36.43;;;;;;;;;;5037203;28;20272;-63
2022/01/13 03:10:34;;;;;;;84.07;37.37;;;;;;;;;;5038942;28;20546;-63
2022/01/13 03:13:01;;;;;;;77.00;35.80;;;;;;;;;;5038106;28;20210;-62
2022/01/13 03:15:27;;;;;;;75.17;35.67;;;;;;;;;;5038754;28;20555;-63
2022/01/13 03:17:53;;;;;;;74.23;36.07;;;;;;;;;;5037072;28;20202;-64
2022/01/13 03:20:19;;;;;;;75.27;36.40;;;;;;;;;;5037659;28;20179;-63
2022/01/13 03:22:45;;;;;;;81.90;35.50;;;;;;;;;;5038581;28;20529;-63
2022/01/13 03:25:12;;;;;;;75.97;36.50;;;;;;;;;;5037197;28;20190;-63
2022/01/13 03:27:40;;;;;;;80.60;35.23;;;;;;;;;;5038566;28;20210;-62
2022/01/13 03:30:07;;;;;;;76.03;36.27;;;;;;;;;;5038650;28;20168;-63
2022/01/13 03:32:34;;;;;;;75.10;35.63;;;;;;;;;;5038496;28;20193;-62
2022/01/13 03:35:00;;;;;;;80.17;35.77;;;;;;;;;;5038897;28;20237;-62
2022/01/13 03:37:27;;;;;;;83.67;35.87;;;;;;;;;;5038557;28;20186;-62
2022/01/13 03:39:53;;;;;;;79.30;37.37;;;;;;;;;;5039068;28;20409;-63
2022/01/13 03:42:19;;;;;;;79.27;36.80;;;;;;;;;;5037475;28;20421;-64
2022/01/13 03:44:45;;;;;;;73.97;36.33;;;;;;;;;;5038730;28;20237;-63
2022/01/13 03:47:11;;;;;;;81.90;36.27;;;;;;;;;;5036596;28;20252;-63
2022/01/13 03:49:37;;;;;;;83.17;35.80;;;;;;;;;;5038319;28;20217;-63
2022/01/13 03:52:04;;;;;;;84.67;36.77;;;;;;;;;;5038584;28;20183;-63
2022/01/13 03:54:33;;;;;;;79.47;36.60;;;;;;;;;;5038020;28;20233;-62
2022/01/13 03:57:18;;;;;;;73.60;35.67;;;;;;;;;;5038167;28;20179;-62
2022/01/13 04:00:03;;;;;;;89.50;37.97;;;;;;;;;;5051743;23;20246;-65
2022/01/13 04:02:29;;;;;;;83.93;37.13;;;;;;;;;;5033881;28;20237;-66
2022/01/13 04:04:55;;;;;;;86.67;39.83;;;;;;;;;;5049126;28;20652;-66
2022/01/13 04:07:22;;;;;;;81.63;37.27;;;;;;;;;;5033752;28;20591;-66
2022/01/13 04:09:48;;;;;;;90.83;38.57;;;;;;;;;;5033789;28;20188;-66
2022/01/13 04:12:14;;;;;;;90.33;36.60;;;;;;;;;;5032296;28;20172;-66
2022/01/13 04:17:07;;;;;;;86.57;36.47;;;;;;;;;;5034007;28;20194;-66
2022/01/13 04:19:33;;;;;;;90.33;39.37;;;;;;;;;;5032289;28;20207;-66
2022/01/13 04:21:59;;;;;;;91.67;40.37;;;;;;;;;;5034825;28;20451;-66
2022/01/13 04:24:26;;;;;;;94.63;39.50;;;;;;;;;;5038619;28;20542;-67
2022/01/13 04:26:54;;;;;;;94.43;40.87;;;;;;;;;;5036590;28;20205;-66
2022/01/13 04:29:29;;;;;;;101.77;43.27;;;;;;;;;;5037383;28;20659;-66
2022/01/13 04:31:55;;;;;;;93.03;42.37;;;;;;;;;;5036136;28;20417;-66
2022/01/13 04:34:21;;;;;;;93.43;40.23;;;;;;;;;;5037291;28;20501;-66
2022/01/13 04:36:48;;;;;;;91.87;38.57;;;;;;;;;;5037555;28;20689;-65
2022/01/13 04:39:15;;;;;;;92.13;39.07;;;;;;;;;;5036735;28;20480;-66
2022/01/13 04:41:46;;;;;;;86.37;36.70;;;;;;;;;;5037667;28;20471;-66
2022/01/13 04:44:13;;;;;;;92.57;40.77;;;;;;;;;;5037421;28;20172;-67
2022/01/13 04:46:39;;;;;;;91.27;39.93;;;;;;;;;;5037186;28;20186;-65
2022/01/13 04:49:06;;;;;;;102.03;41.90;;;;;;;;;;5037019;28;20445;-66
2022/01/13 04:51:32;;;;;;;95.17;39.47;;;;;;;;;;5035735;28;20460;-67
2022/01/13 04:53:58;;;;;;;94.10;40.90;;;;;;;;;;5037691;28;20203;-66
2022/01/13 04:56:38;;;;;;;92.43;41.67;;;;;;;;;;5037230;28;20553;-66
2022/01/13 04:59:04;;;;;;;96.73;41.73;;;;;;;;;;5037140;28;20421;-66
2022/01/13 05:01:30;;;;;;;98.43;43.17;;;;;;;;;;5035919;28;20782;-66
2022/01/13 05:03:57;;;;;;;97.97;42.43;;;;;;;;;;5035303;28;20703;-66
2022/01/13 05:06:23;;;;;;;96.20;42.50;;;;;;;;;;5035540;28;20635;-65
2022/01/13 05:08:49;;;;;;;100.67;44.50;;;;;;;;;;5035405;28;20842;-66
2022/01/13 05:11:16;;;;;;;100.67;42.10;;;;;;;;;;5037326;28;20414;-66
2022/01/13 05:13:42;;;;;;;96.93;42.40;;;;;;;;;;5036904;28;20406;-66
2022/01/13 05:16:16;;;;;;;101.17;42.70;;;;;;;;;;5035431;28;20421;-66
2022/01/13 05:18:49;;;;;;;96.37;42.43;;;;;;;;;;5036708;28;20398;-66
2022/01/13 05:21:22;;;;;;;96.47;43.23;;;;;;;;;;5036762;28;20950;-66
2022/01/13 05:23:49;;;;;;;101.33;42.73;;;;;;;;;;5035342;28;20410;-66
2022/01/13 05:26:15;;;;;;;95.63;43.03;;;;;;;;;;5036519;28;20813;-67
2022/01/13 05:28:41;;;;;;;97.70;42.03;;;;;;;;;;5036629;28;20799;-66
2022/01/13 05:31:10;;;;;;;93.00;42.03;;;;;;;;;;5036828;28;20410;-66
2022/01/13 05:33:36;;;;;;;97.87;42.90;;;;;;;;;;5035086;28;20414;-66
2022/01/13 05:36:02;;;;;;;103.00;46.23;;;;;;;;;;5034802;28;20445;-66
2022/01/13 05:38:28;;;;;;;87.67;43.47;;;;;;;;;;5036788;28;20233;-65
2022/01/13 05:40:54;;;;;;;101.60;43.20;;;;;;;;;;5036664;28;20282;-66
2022/01/13 05:43:20;;;;;;;99.93;42.27;;;;;;;;;;5034789;28;20969;-66
2022/01/13 05:45:46;;;;;;;95.80;42.40;;;;;;;;;;5036133;28;20411;-66
2022/01/13 05:48:13;;;;;;;97.73;43.63;;;;;;;;;;5034785;28;20503;-66
2022/01/13 05:50:39;;;;;;;93.90;43.07;;;;;;;;;;5035908;28;20195;-66
2022/01/13 05:53:05;;;;;;;98.03;45.23;;;;;;;;;;5036076;28;20817;-67
2022/01/13 05:55:31;;;;;;;88.43;42.77;;;;;;;;;;5034487;28;20423;-66
2022/01/13 05:57:57;;;;;;;92.30;43.87;;;;;;;;;;5034924;28;20426;-66
2022/01/13 06:00:24;;;;;;;90.00;41.27;;;;;;;;;;5035514;28;20356;-66
2022/01/13 06:02:50;;;;;;;94.53;41.10;;;;;;;;;;5034461;28;20198;-66
2022/01/13 06:05:18;;;;;;;82.13;38.43;;;;;;;;;;5034709;28;20532;-66
2022/01/13 06:07:44;;;;;;;89.20;41.43;;;;;;;;;;5035761;28;20453;-65
2022/01/13 06:10:10;;;;;;;85.60;39.53;;;;;;;;;;5035745;28;20426;-66
2022/01/13 06:12:37;;;;;;;83.97;40.33;;;;;;;;;;5034660;28;20589;-66
2022/01/13 06:15:10;;;;;;;80.07;37.67;;;;;;;;;;5034702;28;20962;-67
2022/01/13 06:17:37;;;;;;;81.10;39.80;;;;;;;;;;5035746;28;20421;-66
2022/01/13 06:20:04;;;;;;;81.03;39.20;;;;;;;;;;5035866;28;20437;-66
2022/01/13 06:22:30;;;;;;;79.17;39.20;;;;;;;;;;5035303;28;20198;-65
2022/01/13 06:24:56;;;;;;;82.07;39.17;;;;;;;;;;5035249;28;20635;-67
2022/01/13 06:27:22;;;;;;;80.80;37.50;;;;;;;;;;5034262;28;20469;-66
2022/01/13 06:29:50;;;;;;;79.80;38.37;;;;;;;;;;5034698;28;20203;-66
2022/01/13 06:32:16;;;;;;;88.90;39.77;;;;;;;;;;5046226;28;20417;-66
2022/01/13 06:34:42;;;;;;;78.50;37.60;;;;;;;;;;5048949;28;20211;-66
2022/01/13 06:37:08;;;;;;;86.77;40.43;;;;;;;;;;5049392;28;20437;-66
2022/01/13 06:39:34;;;;;;;91.70;40.27;;;;;;;;;;5044763;28;20203;-66
2022/01/13 06:42:00;;;;;;;81.33;40.20;;;;;;;;;;5035738;28;20252;-66
2022/01/13 06:44:26;;;;;;;85.20;40.30;;;;;;;;;;5036129;28;20183;-66
2022/01/13 06:46:52;;;;;;;95.40;41.87;;;;;;;;;;5033710;28;20187;-65
2022/01/13 06:49:18;;;;;;;103.77;44.13;;;;;;;;;;5034903;28;20195;-65
2022/01/13 06:51:44;;;;;;;98.80;44.77;;;;;;;;;;5034948;28;20906;-66
2022/01/13 06:54:10;;;;;;;89.50;40.43;;;;;;;;;;5033411;28;20410;-66
2022/01/13 06:56:36;;;;;;;93.77;43.83;;;;;;;;;;5034963;28;20176;-65
2022/01/13 06:59:08;;;;;;;88.87;42.73;;;;;;;;;;5034888;28;20587;-66
2022/01/13 07:01:34;;;;;;;118.53;54.93;;;;;;;;;;5034756;28;20156;-66
2022/01/13 07:04:00;;;;;;;95.20;43.60;;;;;;;;;;5033477;28;20429;-66
2022/01/13 07:06:26;;;;;;;94.23;44.17;;;;;;;;;;5033261;28;20214;-66
2022/01/13 07:08:52;;;;;;;90.40;43.57;;;;;;;;;;5033185;28;20256;-65
2022/01/13 07:11:18;;;;;;;101.67;46.10;;;;;;;;;;5035205;28;20624;-66
2022/01/13 07:13:44;;;;;;;109.43;49.53;;;;;;;;;;5033337;28;20179;-67
2022/01/13 07:16:10;;;;;;;144.70;66.90;;;;;;;;;;5034544;28;20266;-66
2022/01/13 07:18:39;;;;;;;115.33;47.30;;;;;;;;;;5033703;28;20200;-66
2022/01/13 07:21:09;;;;;;;134.87;60.90;;;;;;;;;;5032930;28;20701;-66
2022/01/13 07:23:36;;;;;;;126.63;59.20;;;;;;;;;;5032823;28;20468;-66
2022/01/13 07:26:03;;;;;;;109.70;46.50;;;;;;;;;;5034292;28;20187;-66
2022/01/13 07:28:29;;;;;;;90.93;41.77;;;;;;;;;;5034100;28;20471;-66
2022/01/13 07:30:56;;;;;;;96.90;42.80;;;;;;;;;;5034181;28;20195;-66
2022/01/13 07:33:22;;;;;;;98.20;44.40;;;;;;;;;;5033966;28;20444;-66
2022/01/13 07:35:48;;;;;;;98.63;42.23;;;;;;;;;;5033839;28;20410;-66
2022/01/13 07:38:14;;;;;;;98.13;45.13;;;;;;;;;;5032810;28;20425;-66
2022/01/13 07:40:40;;;;;;;120.53;53.73;;;;;;;;;;5034182;28;20285;-66
2022/01/13 07:43:06;;;;;;;111.90;52.20;;;;;;;;;;5032947;28;20175;-66
2022/01/13 07:45:32;;;;;;;105.50;46.73;;;;;;;;;;5034238;28;20183;-66
2022/01/13 07:47:58;;;;;;;113.33;52.23;;;;;;;;;;5033680;28;20671;-65
2022/01/13 07:50:24;;;;;;;103.30;48.50;;;;;;;;;;5033879;28;20437;-65
2022/01/13 07:52:50;;;;;;;96.97;47.23;;;;;;;;;;5034004;28;20175;-66
2022/01/13 07:55:16;;;;;;;102.03;45.33;;;;;;;;;;5033007;28;20198;-66
2022/01/13 07:57:42;;;;;;;82.70;40.17;;;;;;;;;;5033407;28;20179;-65
2022/01/13 08:00:10;;;;;;;88.97;41.30;;;;;;;;;;5036009;28;20888;-66
2022/01/13 08:02:35;;;;;;;83.50;39.00;;;;;;;;;;5038100;28;20476;-67
2022/01/13 08:05:02;;;;;;;86.80;40.77;;;;;;;;;;5038756;28;20418;-67
2022/01/13 08:07:28;;;;;;;83.90;40.20;;;;;;;;;;5037104;28;20203;-65
2022/01/13 08:09:53;;;;;;;89.20;41.00;;;;;;;;;;5039282;28;20426;-66
2022/01/13 08:12:19;;;;;;;100.87;43.20;;;;;;;;;;5039195;28;20183;-65
2022/01/13 08:14:46;;;;;;;102.13;45.43;;;;;;;;;;5037321;28;20179;-65
2022/01/13 08:19:45;;;;;;;85.50;39.63;;;;;;;;;;5037651;28;20187;-65
2022/01/13 08:19:57;;;;;;;87.93;40.07;;;;;;;;;;5037415;28;20579;-66
2022/01/13 08:22:23;;;;;;;93.63;44.13;;;;;;;;;;5037578;28;20441;-66
2022/01/13 08:24:49;;;;;;;90.27;41.07;;;;;;;;;;5036163;28;20175;-66
2022/01/13 08:27:15;;;;;;;83.53;37.10;;;;;;;;;;5036243;28;20211;-66
2022/01/13 08:29:41;;;;;;;84.97;42.77;;;;;;;;;;5037695;28;20191;-66
2022/01/13 08:32:07;;;;;;;101.50;48.43;;;;;;;;;;5036181;28;20211;-66
2022/01/13 08:34:33;;;;;;;107.37;47.17;;;;;;;;;;5038036;28;20233;-65
2022/01/13 08:36:59;;;;;;;109.40;49.27;;;;;;;;;;5037268;28;20179;-65
2022/01/13 08:39:25;;;;;;;110.70;47.23;;;;;;;;;;5036297;28;20206;-65
2022/01/13 08:41:52;;;;;;;114.13;47.27;;;;;;;;;;5036006;28;20232;-66
2022/01/13 08:44:18;;;;;;;112.20;46.23;;;;;;;;;;5035888;28;20183;-65
2022/01/13 08:46:44;;;;;;;113.83;46.77;;;;;;;;;;5038445;28;20413;-65
2022/01/13 08:49:10;;;;;;;100.57;43.10;;;;;;;;;;5036196;28;20245;-66
2022/01/13 08:51:36;;;;;;;112.53;47.47;;;;;;;;;;5037626;28;20622;-66
2022/01/13 08:54:02;;;;;;;100.23;42.97;;;;;;;;;;5037147;28;20228;-65
2022/01/13 08:56:28;;;;;;;116.03;49.60;;;;;;;;;;5036886;28;20406;-66
2022/01/13 08:58:55;;;;;;;102.27;44.70;;;;;;;;;;5036956;28;20186;-67
2022/01/13 09:01:21;;;;;;;97.03;41.13;;;;;;;;;;5037155;28;20176;-66
2022/01/13 09:03:47;;;;;;;107.20;42.63;;;;;;;;;;5036792;28;20909;-65
2022/01/13 09:06:13;;;;;;;111.87;47.20;;;;;;;;;;5035625;28;20418;-66
2022/01/13 09:08:39;;;;;;;96.63;42.67;;;;;;;;;;5036512;28;20210;-66
2022/01/13 09:11:05;;;;;;;107.17;45.13;;;;;;;;;;5036140;28;20437;-66
2022/01/13 09:13:36;;;;;;;101.53;44.20;;;;;;;;;;5037111;28;20171;-65
2022/01/13 09:16:04;;;;;;;106.40;44.07;;;;;;;;;;5035570;28;20178;-66
2022/01/13 09:18:34;;;;;;;106.20;45.93;;;;;;;;;;5037264;28;20492;-65
2022/01/13 09:21:00;;;;;;;122.30;48.67;;;;;;;;;;5035266;28;20488;-66
2022/01/13 09:23:26;;;;;;;126.23;48.87;;;;;;;;;;5036816;28;20187;-66
2022/01/13 09:25:52;;;;;;;118.10;48.97;;;;;;;;;;5036367;28;20186;-66
2022/01/13 09:28:18;;;;;;;167.37;74.53;;;;;;;;;;5035250;28;20379;-65
2022/01/13 09:30:44;;;;;;;145.13;59.37;;;;;;;;;;5036657;28;20426;-65
2022/01/13 09:33:10;;;;;;;109.37;45.00;;;;;;;;;;5035491;28;20182;-65
2022/01/13 09:35:36;;;;;;;150.10;68.67;;;;;;;;;;5034663;28;20257;-66
2022/01/13 09:38:03;;;;;;;116.77;52.93;;;;;;;;;;5035806;28;20190;-66
2022/01/13 09:40:29;;;;;;;121.23;52.70;;;;;;;;;;5036782;28;20453;-65
2022/01/13 09:42:55;;;;;;;113.43;47.73;;;;;;;;;;5037756;28;20194;-66
2022/01/13 09:45:22;;;;;;;149.67;58.90;;;;;;;;;;5036092;28;20771;-65
2022/01/13 09:47:48;;;;;;;108.23;44.47;;;;;;;;;;5036950;28;20519;-65
2022/01/13 09:50:16;;;;;;;114.83;49.80;;;;;;;;;;5037450;28;20920;-65
2022/01/13 09:52:42;;;;;;;87.07;39.23;;;;;;;;;;5035440;28;20179;-65
2022/01/13 09:55:10;;;;;;;91.83;42.60;;;;;;;;;;5036170;28;20501;-66
2022/01/13 09:57:36;;;;;;;91.43;41.47;;;;;;;;;;5036811;28;20798;-66
2022/01/13 10:00:03;;;;;;;107.73;51.60;;;;;;;;;;5035185;28;20473;-65
2022/01/13 10:02:29;;;;;;;92.37;40.50;;;;;;;;;;5035229;28;20414;-66
2022/01/13 10:04:56;;;;;;;86.27;39.23;;;;;;;;;;5036886;28;20418;-66
2022/01/13 10:07:36;;;;;;;102.60;41.77;;;;;;;;;;5036246;28;20457;-65
2022/01/13 10:10:06;;;;;;;93.33;40.70;;;;;;;;;;5036016;28;20518;-65
2022/01/13 10:12:38;;;;;;;107.93;42.67;;;;;;;;;;5036566;28;20382;-66
2022/01/13 10:17:48;;;;;;;84.50;37.60;;;;;;;;;;5035951;28;20528;-65
2022/01/13 10:20:15;;;;;;;97.87;41.20;;;;;;;;;;5035799;28;20920;-65
2022/01/13 10:22:41;;;;;;;94.40;42.00;;;;;;;;;;5035012;28;20898;-66
2022/01/13 10:25:08;;;;;;;101.47;44.33;;;;;;;;;;5036118;28;20444;-66
2022/01/13 10:27:35;;;;;;;94.83;41.60;;;;;;;;;;5035355;28;20658;-66
2022/01/13 10:30:04;;;;;;;107.43;44.13;;;;;;;;;;5035536;28;20505;-65
2022/01/13 10:32:37;;;;;;;110.57;43.90;;;;;;;;;;5036091;28;20402;-65
2022/01/13 10:35:03;;;;;;;97.70;45.43;;;;;;;;;;5035371;28;20413;-65
2022/01/13 10:37:33;;;;;;;104.87;45.13;;;;;;;;;;5060756;22;20493;-61
2022/01/13 10:40:14;;;;;;;107.37;49.63;;;;;;;;;;5042236;28;20185;-61
2022/01/13 10:45:12;;;;;;;86.83;37.17;;;;;;;;;;5044367;28;20482;-63
2022/01/13 10:47:41;;;;;;;91.30;41.50;;;;;;;;;;5043407;28;20450;-61
2022/01/13 10:50:12;;;;;;;94.43;43.20;;;;;;;;;;5041690;28;20421;-61
2022/01/13 10:52:38;;;;;;;84.50;41.07;;;;;;;;;;5044295;28;20413;-61
2022/01/13 10:55:12;;;;;;;92.47;42.40;;;;;;;;;;5041751;28;20496;-61
2022/01/13 10:57:38;;;;;;;98.57;45.83;;;;;;;;;;5041227;28;20445;-61
2022/01/13 11:00:05;;;;;;;91.00;42.20;;;;;;;;;;5040467;28;20591;-62
2022/01/13 11:02:31;;;;;;;96.37;41.83;;;;;;;;;;5042712;28;20441;-61
2022/01/13 11:05:01;;;;;;;93.70;40.93;;;;;;;;;;5043883;28;20409;-61
2022/01/13 11:07:28;;;;;;;99.83;44.30;;;;;;;;;;5042366;28;21044;-61
2022/01/13 11:09:59;;;;;;;87.70;39.53;;;;;;;;;;5039237;28;20410;-61
2022/01/13 11:12:35;;;;;;;107.97;50.17;;;;;;;;;;5035546;28;20409;-61
2022/01/13 11:15:06;;;;;;;197.40;81.00;;;;;;;;;;5034674;28;20437;-61
2022/01/13 11:17:38;;;;;;;114.13;46.73;;;;;;;;;;5035126;28;20437;-61
2022/01/13 11:20:15;;;;;;;104.20;44.60;;;;;;;;;;5034781;28;20771;-61
2022/01/13 11:22:42;;;;;;;98.93;41.90;;;;;;;;;;5035756;28;20401;-62
2022/01/13 11:25:10;;;;;;;111.77;54.17;;;;;;;;;;5033277;28;20411;-61
2022/01/13 11:27:37;;;;;;;86.67;37.47;;;;;;;;;;5034377;28;20556;-61
2022/01/13 11:30:06;;;;;;;90.97;43.40;;;;;;;;;;5032837;28;20418;-61
2022/01/13 11:32:32;;;;;;;92.33;33.77;;;;;;;;;;5033806;28;20409;-61
2022/01/13 11:34:58;;;;;;;76.77;32.70;;;;;;;;;;5034367;28;20217;-62
2022/01/13 11:37:31;;;;;;;88.87;38.97;;;;;;;;;;5034026;28;20450;-62
2022/01/13 11:39:57;;;;;;;77.70;36.20;;;;;;;;;;5034131;28;20452;-62
2022/01/13 11:42:23;;;;;;;76.70;33.40;;;;;;;;;;5034140;28;20953;-61
2022/01/13 11:45:08;;;;;;;85.03;35.83;;;;;;;;;;5034435;28;20214;-62
2022/01/13 11:47:34;;;;;;;76.37;35.80;;;;;;;;;;5034059;28;20269;-61
2022/01/13 11:50:41;;;;;;;78.67;35.27;;;;;;;;;;5033744;28;20179;-61
2022/01/13 11:53:18;;;;;;;78.30;33.40;;;;;;;;;;5034177;28;20178;-61
2022/01/13 11:55:50;;;;;;;72.13;32.37;;;;;;;;;;5033555;28;20174;-61
2022/01/13 11:58:17;;;;;;;71.00;33.17;;;;;;;;;;5032874;28;20444;-61
2022/01/13 12:00:44;;;;;;;66.47;29.40;;;;;;;;;;5033781;28;20424;-62
2022/01/13 12:03:22;;;;;;;68.83;30.67;;;;;;;;;;5032811;28;20271;-63
2022/01/13 12:05:48;;;;;;;73.67;33.50;;;;;;;;;;5033730;28;20414;-63
2022/01/13 12:08:33;;;;;;;79.67;34.67;;;;;;;;;;5033692;28;20914;-61
2022/01/13 12:10:59;;;;;;;67.40;31.37;;;;;;;;;;5034021;28;20258;-60
2022/01/13 12:13:41;;;;;;;66.33;31.70;;;;;;;;;;5033617;28;20214;-61
2022/01/13 12:16:08;;;;;;;73.57;32.93;;;;;;;;;;5033806;28;20275;-61
2022/01/13 12:19:23;;;;;;;80.00;35.77;;;;;;;;;;5032201;28;20203;-61
2022/01/13 12:22:00;;;;;;;71.77;34.00;;;;;;;;;;5033123;28;20467;-61
2022/01/13 12:24:46;;;;;;;74.77;33.03;;;;;;;;;;5033657;28;20390;-61
2022/01/13 12:27:12;;;;;;;72.20;35.03;;;;;;;;;;5032456;28;20675;-61
2022/01/13 12:29:46;;;;;;;66.10;32.63;;;;;;;;;;5034206;28;20402;-60
2022/01/13 12:32:14;;;;;;;71.87;32.77;;;;;;;;;;5034609;28;20178;-61
2022/01/13 12:34:45;;;;;;;70.17;33.73;;;;;;;;;;5040983;28;20231;-62
2022/01/13 12:37:14;;;;;;;70.67;32.87;;;;;;;;;;5038518;28;20682;-61
2022/01/13 12:39:40;;;;;;;68.23;32.87;;;;;;;;;;5039264;28;20175;-63
2022/01/13 12:42:12;;;;;;;67.27;34.23;;;;;;;;;;5034962;28;20655;-61
2022/01/13 12:47:23;;;;;;;58.33;29.70;;;;;;;;;;5037205;28;20469;-61
2022/01/13 12:49:49;;;;;;;63.30;32.33;;;;;;;;;;5036635;28;20700;-61
2022/01/13 12:52:19;;;;;;;66.10;32.73;;;;;;;;;;5036566;28;20258;-60
2022/01/13 12:54:45;;;;;;;65.80;31.97;;;;;;;;;;5036657;28;20175;-63
2022/01/13 12:57:11;;;;;;;60.70;29.87;;;;;;;;;;5037252;28;20227;-61
2022/01/13 12:59:37;;;;;;;81.20;39.73;;;;;;;;;;5036511;28;20179;-63
2022/01/13 13:02:03;;;;;;;65.13;31.53;;;;;;;;;;5036279;28;20179;-63
2022/01/13 13:04:34;;;;;;;55.73;30.10;;;;;;;;;;5036609;28;20185;-63
2022/01/13 13:07:00;;;;;;;62.13;32.47;;;;;;;;;;5036320;28;20167;-63
2022/01/13 13:09:28;;;;;;;58.87;30.17;;;;;;;;;;5034866;28;20229;-63
2022/01/13 13:11:57;;;;;;;59.73;29.43;;;;;;;;;;5035230;28;20174;-63
2022/01/13 13:15:40;;;;;;;57.33;29.00;;;;;;;;;;5036699;28;20659;-63
2022/01/13 13:17:37;;;;;;;66.37;34.30;;;;;;;;;;5031423;28;20256;-63
2022/01/13 13:20:05;;;;;;;60.73;30.30;;;;;;;;;;5035897;28;20660;-63
2022/01/13 13:22:44;;;;;;;62.47;31.40;;;;;;;;;;5034407;28;20183;-63
2022/01/13 13:25:10;;;;;;;55.30;28.30;;;;;;;;;;5036003;28;20167;-63
2022/01/13 13:27:35;;;;;;;64.33;30.80;;;;;;;;;;5034406;28;20199;-63
2022/01/13 13:30:01;;;;;;;62.33;31.70;;;;;;;;;;5035655;28;20182;-60
2022/01/13 13:32:27;;;;;;;49.70;27.60;;;;;;;;;;5035969;28;20182;-63
2022/01/13 13:34:53;;;;;;;55.80;29.20;;;;;;;;;;5036109;28;20171;-61
2022/01/13 13:37:19;;;;;;;59.13;30.80;;;;;;;;;;5035660;28;20683;-62
2022/01/13 13:39:45;;;;;;;64.83;33.57;;;;;;;;;;5039177;28;20626;-60
2022/01/13 13:42:13;;;;;;;64.13;32.00;;;;;;;;;;5055916;28;20211;-62
2022/01/13 13:44:41;;;;;;;64.20;33.03;;;;;;;;;;5050550;28;20237;-61
2022/01/13 13:47:13;;;;;;;56.60;30.13;;;;;;;;;;5043279;28;20187;-60
2022/01/13 13:49:40;;;;;;;62.33;33.53;;;;;;;;;;5039724;28;20199;-63
2022/01/13 13:52:07;;;;;;;60.43;30.80;;;;;;;;;;5039628;28;20425;-61
2022/01/13 13:54:37;;;;;;;63.00;30.50;;;;;;;;;;5039817;28;20399;-61
2022/01/13 13:57:07;;;;;;;62.47;31.90;;;;;;;;;;5035069;28;20183;-61
2022/01/13 13:59:36;;;;;;;63.87;32.63;;;;;;;;;;5035436;28;20313;-61
2022/01/13 14:02:05;;;;;;;61.83;31.53;;;;;;;;;;5036363;28;20635;-61
2022/01/13 14:04:37;;;;;;;66.87;32.97;;;;;;;;;;5036846;28;20195;-62
2022/01/13 14:07:03;;;;;;;60.23;30.47;;;;;;;;;;5037837;28;20171;-62
2022/01/13 14:09:39;;;;;;;63.27;31.03;;;;;;;;;;5035534;28;20643;-62
2022/01/13 14:12:07;;;;;;;59.90;30.10;;;;;;;;;;5034418;28;20309;-62
2022/01/13 14:14:37;;;;;;;58.53;31.70;;;;;;;;;;5033793;28;20179;-63
2022/01/13 14:17:03;;;;;;;76.47;40.17;;;;;;;;;;5035523;28;20658;-62
2022/01/13 14:19:29;;;;;;;59.47;32.77;;;;;;;;;;5035936;28;20182;-62
2022/01/13 14:21:55;;;;;;;66.87;34.10;;;;;;;;;;5033515;28;20183;-61
2022/01/13 14:24:35;;;;;;;63.70;33.60;;;;;;;;;;5034780;28;20639;-62
2022/01/13 14:27:07;;;;;;;78.20;42.77;;;;;;;;;;5034705;28;20406;-62
2022/01/13 14:29:33;;;;;;;57.93;32.50;;;;;;;;;;5033675;28;20418;-62
2022/01/13 14:32:17;;;;;;;65.63;32.33;;;;;;;;;;5035167;28;20258;-61
2022/01/13 14:34:45;;;;;;;59.67;33.87;;;;;;;;;;5035548;28;20175;-62
2022/01/13 14:37:11;;;;;;;61.60;31.50;;;;;;;;;;5034751;28;20203;-62
2022/01/13 14:39:37;;;;;;;72.73;39.63;;;;;;;;;;5035049;28;20202;-62
2022/01/13 14:42:03;;;;;;;55.20;30.60;;;;;;;;;;5034801;28;20266;-62
2022/01/13 14:44:29;;;;;;;60.70;30.93;;;;;;;;;;5033353;28;20183;-62
2022/01/13 14:47:06;;;;;;;59.70;30.27;;;;;;;;;;5034235;28;20176;-62
2022/01/13 14:49:35;;;;;;;73.90;43.50;;;;;;;;;;5033097;28;20631;-62